sensor_id;sensor_type;location;lat;lon;timestamp;P1;durP1;ratioP1;P2;durP2;ratioP2
22646;SDS011;11490;42.726;23.268;2024-03-25T00:00:24;1.70;;;1.60;;
22646;SDS011;11490;42.726;23.268;2024-03-25T00:02:50;1.98;;;1.88;;
22646;SDS011;11490;42.726;23.268;2024-03-25T00:05:16;1.90;;;1.80;;
22646;SDS011;11490;42.726;23.268;2024-03-25T00:07:47;1.70;;;1.60;;
22646;SDS011;11490;42.726;23.268;2024-03-25T00:10:13;1.98;;;1.88;;
22646;SDS011;11490;42.726;23.268;2024-03-25T00:12:38;1.80;;;1.70;;
22646;SDS011;11490;42.726;23.268;2024-03-25T00:15:04;1.70;;;1.60;;
22646;SDS011;11490;42.726;23.268;2024-03-25T00:17:29;1.90;;;1.80;;
22646;SDS011;11490;42.726;23.268;2024-03-25T00:19:56;1.80;;;1.70;;
22646;SDS011;11490;42.726;23.268;2024-03-25T00:22:23;2.00;;;1.90;;
22646;SDS011;11490;42.726;23.268;2024-03-25T00:24:50;1.80;;;1.70;;
22646;SDS011;11490;42.726;23.268;2024-03-25T00:27:16;1.90;;;1.80;;
22646;SDS011;11490;42.726;23.268;2024-03-25T00:29:42;2.15;;;2.05;;
22646;SDS011;11490;42.726;23.268;2024-03-25T00:32:09;2.17;;;1.92;;
22646;SDS011;11490;42.726;23.268;2024-03-25T00:34:35;1.80;;;1.70;;
22646;SDS011;11490;42.726;23.268;2024-03-25T00:37:00;1.77;;;1.67;;
22646;SDS011;11490;42.726;23.268;2024-03-25T00:39:26;1.70;;;1.60;;
22646;SDS011;11490;42.726;23.268;2024-03-25T00:41:52;2.00;;;1.90;;
22646;SDS011;11490;42.726;23.268;2024-03-25T00:44:18;1.70;;;1.60;;
22646;SDS011;11490;42.726;23.268;2024-03-25T00:46:44;1.60;;;1.50;;
22646;SDS011;11490;42.726;23.268;2024-03-25T00:49:10;1.70;;;1.60;;
22646;SDS011;11490;42.726;23.268;2024-03-25T00:51:36;1.80;;;1.70;;
22646;SDS011;11490;42.726;23.268;2024-03-25T00:54:02;1.80;;;1.70;;
22646;SDS011;11490;42.726;23.268;2024-03-25T00:56:28;1.90;;;1.80;;
22646;SDS011;11490;42.726;23.268;2024-03-25T00:58:54;1.60;;;1.50;;
22646;SDS011;11490;42.726;23.268;2024-03-25T01:01:20;1.67;;;1.58;;
22646;SDS011;11490;42.726;23.268;2024-03-25T01:03:46;1.67;;;1.58;;
22646;SDS011;11490;42.726;23.268;2024-03-25T01:06:11;1.70;;;1.60;;
22646;SDS011;11490;42.726;23.268;2024-03-25T01:08:36;1.60;;;1.50;;
22646;SDS011;11490;42.726;23.268;2024-03-25T01:11:02;2.10;;;1.90;;
22646;SDS011;11490;42.726;23.268;2024-03-25T01:13:27;2.00;;;1.80;;
22646;SDS011;11490;42.726;23.268;2024-03-25T01:15:53;1.80;;;1.70;;
22646;SDS011;11490;42.726;23.268;2024-03-25T01:18:18;2.03;;;1.85;;
22646;SDS011;11490;42.726;23.268;2024-03-25T01:20:43;1.80;;;1.70;;
22646;SDS011;11490;42.726;23.268;2024-03-25T01:23:09;2.03;;;1.92;;
22646;SDS011;11490;42.726;23.268;2024-03-25T01:25:35;2.40;;;2.20;;
22646;SDS011;11490;42.726;23.268;2024-03-25T01:28:00;3.33;;;2.17;;
22646;SDS011;11490;42.726;23.268;2024-03-25T01:30:26;4.63;;;2.67;;
22646;SDS011;11490;42.726;23.268;2024-03-25T01:32:53;3.22;;;2.10;;
22646;SDS011;11490;42.726;23.268;2024-03-25T01:35:19;1.98;;;1.88;;
22646;SDS011;11490;42.726;23.268;2024-03-25T01:41:11;1.80;;;1.67;;
22646;SDS011;11490;42.726;23.268;2024-03-25T01:43:37;1.80;;;1.70;;
22646;SDS011;11490;42.726;23.268;2024-03-25T01:46:04;1.70;;;1.60;;
22646;SDS011;11490;42.726;23.268;2024-03-25T01:48:30;1.67;;;1.58;;
22646;SDS011;11490;42.726;23.268;2024-03-25T01:50:56;1.63;;;1.52;;
22646;SDS011;11490;42.726;23.268;2024-03-25T01:53:22;1.60;;;1.50;;
22646;SDS011;11490;42.726;23.268;2024-03-25T01:55:48;1.95;;;1.83;;
22646;SDS011;11490;42.726;23.268;2024-03-25T01:58:16;1.65;;;1.55;;
22646;SDS011;11490;42.726;23.268;2024-03-25T02:00:41;1.70;;;1.60;;
22646;SDS011;11490;42.726;23.268;2024-03-25T02:03:08;1.80;;;1.70;;
22646;SDS011;11490;42.726;23.268;2024-03-25T02:05:34;1.73;;;1.63;;
22646;SDS011;11490;42.726;23.268;2024-03-25T02:07:59;1.92;;;1.83;;
22646;SDS011;11490;42.726;23.268;2024-03-25T02:10:26;1.75;;;1.65;;
22646;SDS011;11490;42.726;23.268;2024-03-25T02:12:52;1.90;;;1.80;;
22646;SDS011;11490;42.726;23.268;2024-03-25T02:15:18;2.15;;;1.85;;
22646;SDS011;11490;42.726;23.268;2024-03-25T02:17:43;1.88;;;1.77;;
22646;SDS011;11490;42.726;23.268;2024-03-25T02:20:09;1.85;;;1.73;;
22646;SDS011;11490;42.726;23.268;2024-03-25T02:22:35;2.20;;;2.10;;
22646;SDS011;11490;42.726;23.268;2024-03-25T02:25:01;1.90;;;1.80;;
22646;SDS011;11490;42.726;23.268;2024-03-25T02:27:38;1.70;;;1.60;;
22646;SDS011;11490;42.726;23.268;2024-03-25T02:32:32;2.30;;;2.10;;
22646;SDS011;11490;42.726;23.268;2024-03-25T02:34:58;1.70;;;1.60;;
22646;SDS011;11490;42.726;23.268;2024-03-25T02:37:24;2.90;;;2.20;;
22646;SDS011;11490;42.726;23.268;2024-03-25T02:39:50;2.10;;;2.00;;
22646;SDS011;11490;42.726;23.268;2024-03-25T02:42:16;2.20;;;2.10;;
22646;SDS011;11490;42.726;23.268;2024-03-25T02:44:42;2.70;;;2.45;;
22646;SDS011;11490;42.726;23.268;2024-03-25T02:47:08;5.97;;;2.20;;
22646;SDS011;11490;42.726;23.268;2024-03-25T02:49:34;2.10;;;2.00;;
22646;SDS011;11490;42.726;23.268;2024-03-25T02:52:00;2.15;;;2.00;;
22646;SDS011;11490;42.726;23.268;2024-03-25T02:54:26;2.00;;;1.90;;
22646;SDS011;11490;42.726;23.268;2024-03-25T02:56:51;2.08;;;1.98;;
22646;SDS011;11490;42.726;23.268;2024-03-25T02:59:17;2.40;;;2.20;;
22646;SDS011;11490;42.726;23.268;2024-03-25T03:01:42;2.00;;;1.90;;
22646;SDS011;11490;42.726;23.268;2024-03-25T03:04:08;2.40;;;2.20;;
22646;SDS011;11490;42.726;23.268;2024-03-25T03:06:33;2.10;;;1.90;;
22646;SDS011;11490;42.726;23.268;2024-03-25T03:08:58;2.67;;;2.47;;
22646;SDS011;11490;42.726;23.268;2024-03-25T03:11:24;2.08;;;1.98;;
22646;SDS011;11490;42.726;23.268;2024-03-25T03:13:49;2.65;;;2.45;;
22646;SDS011;11490;42.726;23.268;2024-03-25T03:16:15;2.45;;;2.20;;
22646;SDS011;11490;42.726;23.268;2024-03-25T03:18:40;5.45;;;2.88;;
22646;SDS011;11490;42.726;23.268;2024-03-25T03:21:05;1.80;;;1.70;;
22646;SDS011;11490;42.726;23.268;2024-03-25T03:23:31;1.83;;;1.73;;
22646;SDS011;11490;42.726;23.268;2024-03-25T03:25:56;2.10;;;2.00;;
22646;SDS011;11490;42.726;23.268;2024-03-25T03:28:24;3.13;;;2.85;;
22646;SDS011;11490;42.726;23.268;2024-03-25T03:30:50;1.80;;;1.70;;
22646;SDS011;11490;42.726;23.268;2024-03-25T03:33:15;2.15;;;2.05;;
22646;SDS011;11490;42.726;23.268;2024-03-25T03:35:41;2.80;;;2.60;;
22646;SDS011;11490;42.726;23.268;2024-03-25T03:38:07;1.95;;;1.85;;
22646;SDS011;11490;42.726;23.268;2024-03-25T03:40:33;2.15;;;2.03;;
22646;SDS011;11490;42.726;23.268;2024-03-25T03:42:58;2.28;;;2.10;;
22646;SDS011;11490;42.726;23.268;2024-03-25T03:45:24;1.92;;;1.83;;
22646;SDS011;11490;42.726;23.268;2024-03-25T03:47:50;2.45;;;2.33;;
22646;SDS011;11490;42.726;23.268;2024-03-25T03:50:15;2.05;;;1.95;;
22646;SDS011;11490;42.726;23.268;2024-03-25T03:52:41;2.05;;;1.90;;
22646;SDS011;11490;42.726;23.268;2024-03-25T03:55:06;2.75;;;2.35;;
22646;SDS011;11490;42.726;23.268;2024-03-25T03:57:32;3.13;;;2.75;;
22646;SDS011;11490;42.726;23.268;2024-03-25T03:59:57;2.63;;;2.25;;
22646;SDS011;11490;42.726;23.268;2024-03-25T04:02:23;2.60;;;2.40;;
22646;SDS011;11490;42.726;23.268;2024-03-25T04:04:48;2.55;;;2.35;;
22646;SDS011;11490;42.726;23.268;2024-03-25T04:07:14;3.22;;;3.03;;
22646;SDS011;11490;42.726;23.268;2024-03-25T04:09:40;2.10;;;2.00;;
22646;SDS011;11490;42.726;23.268;2024-03-25T04:12:05;5.05;;;2.97;;
22646;SDS011;11490;42.726;23.268;2024-03-25T04:14:31;3.55;;;2.33;;
22646;SDS011;11490;42.726;23.268;2024-03-25T04:16:58;2.97;;;2.75;;
22646;SDS011;11490;42.726;23.268;2024-03-25T04:19:24;4.53;;;2.85;;
22646;SDS011;11490;42.726;23.268;2024-03-25T04:21:49;2.65;;;2.40;;
22646;SDS011;11490;42.726;23.268;2024-03-25T04:24:15;3.33;;;3.03;;
22646;SDS011;11490;42.726;23.268;2024-03-25T04:26:40;4.40;;;3.20;;
22646;SDS011;11490;42.726;23.268;2024-03-25T04:29:05;4.25;;;3.58;;
22646;SDS011;11490;42.726;23.268;2024-03-25T04:31:31;5.55;;;3.67;;
22646;SDS011;11490;42.726;23.268;2024-03-25T04:33:56;3.35;;;3.03;;
22646;SDS011;11490;42.726;23.268;2024-03-25T04:36:21;3.45;;;3.10;;
22646;SDS011;11490;42.726;23.268;2024-03-25T04:38:47;5.22;;;3.60;;
22646;SDS011;11490;42.726;23.268;2024-03-25T04:41:12;3.25;;;2.72;;
22646;SDS011;11490;42.726;23.268;2024-03-25T04:43:38;5.28;;;3.85;;
22646;SDS011;11490;42.726;23.268;2024-03-25T04:46:03;4.03;;;3.60;;
22646;SDS011;11490;42.726;23.268;2024-03-25T04:48:28;4.03;;;3.63;;
22646;SDS011;11490;42.726;23.268;2024-03-25T04:50:54;4.63;;;3.95;;
22646;SDS011;11490;42.726;23.268;2024-03-25T04:53:20;3.33;;;3.03;;
22646;SDS011;11490;42.726;23.268;2024-03-25T04:55:45;4.75;;;3.28;;
22646;SDS011;11490;42.726;23.268;2024-03-25T04:58:10;3.83;;;3.47;;
22646;SDS011;11490;42.726;23.268;2024-03-25T05:00:36;3.38;;;3.05;;
22646;SDS011;11490;42.726;23.268;2024-03-25T05:03:01;6.63;;;4.03;;
22646;SDS011;11490;42.726;23.268;2024-03-25T05:05:27;4.63;;;3.78;;
22646;SDS011;11490;42.726;23.268;2024-03-25T05:07:52;6.57;;;3.85;;
22646;SDS011;11490;42.726;23.268;2024-03-25T05:10:17;5.93;;;4.13;;
22646;SDS011;11490;42.726;23.268;2024-03-25T05:12:43;5.03;;;3.75;;
22646;SDS011;11490;42.726;23.268;2024-03-25T05:15:09;6.35;;;3.95;;
22646;SDS011;11490;42.726;23.268;2024-03-25T05:17:34;5.57;;;4.93;;
22646;SDS011;11490;42.726;23.268;2024-03-25T05:20:00;8.77;;;5.28;;
22646;SDS011;11490;42.726;23.268;2024-03-25T05:22:25;4.30;;;3.70;;
22646;SDS011;11490;42.726;23.268;2024-03-25T05:24:51;7.07;;;3.95;;
22646;SDS011;11490;42.726;23.268;2024-03-25T05:27:16;5.45;;;4.53;;
22646;SDS011;11490;42.726;23.268;2024-03-25T05:29:41;6.72;;;4.57;;
22646;SDS011;11490;42.726;23.268;2024-03-25T05:32:07;5.35;;;4.85;;
22646;SDS011;11490;42.726;23.268;2024-03-25T05:34:32;8.70;;;4.25;;
22646;SDS011;11490;42.726;23.268;2024-03-25T05:36:57;6.28;;;4.70;;
22646;SDS011;11490;42.726;23.268;2024-03-25T05:39:23;8.80;;;6.10;;
22646;SDS011;11490;42.726;23.268;2024-03-25T05:41:48;8.70;;;5.78;;
22646;SDS011;11490;42.726;23.268;2024-03-25T05:44:14;8.73;;;6.50;;
22646;SDS011;11490;42.726;23.268;2024-03-25T05:46:40;4.93;;;3.85;;
22646;SDS011;11490;42.726;23.268;2024-03-25T05:49:05;7.03;;;5.07;;
22646;SDS011;11490;42.726;23.268;2024-03-25T05:51:31;7.70;;;6.15;;
22646;SDS011;11490;42.726;23.268;2024-03-25T05:53:58;4.78;;;3.75;;
22646;SDS011;11490;42.726;23.268;2024-03-25T05:56:24;5.68;;;3.80;;
22646;SDS011;11490;42.726;23.268;2024-03-25T05:58:55;7.28;;;4.93;;
22646;SDS011;11490;42.726;23.268;2024-03-25T06:01:21;6.70;;;4.90;;
22646;SDS011;11490;42.726;23.268;2024-03-25T06:03:46;6.00;;;4.07;;
22646;SDS011;11490;42.726;23.268;2024-03-25T06:06:12;8.05;;;4.75;;
22646;SDS011;11490;42.726;23.268;2024-03-25T06:08:37;7.05;;;4.63;;
22646;SDS011;11490;42.726;23.268;2024-03-25T06:11:03;9.73;;;4.22;;
22646;SDS011;11490;42.726;23.268;2024-03-25T06:13:28;6.63;;;4.35;;
22646;SDS011;11490;42.726;23.268;2024-03-25T06:15:54;5.57;;;4.07;;
22646;SDS011;11490;42.726;23.268;2024-03-25T06:18:19;7.78;;;4.90;;
22646;SDS011;11490;42.726;23.268;2024-03-25T06:20:45;6.45;;;4.18;;
22646;SDS011;11490;42.726;23.268;2024-03-25T06:23:10;7.47;;;4.78;;
22646;SDS011;11490;42.726;23.268;2024-03-25T06:25:36;7.75;;;4.45;;
22646;SDS011;11490;42.726;23.268;2024-03-25T06:28:02;4.85;;;3.85;;
22646;SDS011;11490;42.726;23.268;2024-03-25T06:30:28;6.65;;;4.53;;
22646;SDS011;11490;42.726;23.268;2024-03-25T06:33:12;21.25;;;4.80;;
22646;SDS011;11490;42.726;23.268;2024-03-25T06:35:56;6.22;;;4.05;;
22646;SDS011;11490;42.726;23.268;2024-03-25T06:38:21;10.65;;;6.03;;
22646;SDS011;11490;42.726;23.268;2024-03-25T06:40:47;9.30;;;4.68;;
22646;SDS011;11490;42.726;23.268;2024-03-25T06:43:12;10.07;;;5.30;;
22646;SDS011;11490;42.726;23.268;2024-03-25T06:45:38;9.70;;;5.93;;
22646;SDS011;11490;42.726;23.268;2024-03-25T06:48:04;12.43;;;5.30;;
22646;SDS011;11490;42.726;23.268;2024-03-25T06:50:32;6.78;;;5.38;;
22646;SDS011;11490;42.726;23.268;2024-03-25T06:52:57;8.07;;;4.97;;
22646;SDS011;11490;42.726;23.268;2024-03-25T06:55:23;7.13;;;4.80;;
22646;SDS011;11490;42.726;23.268;2024-03-25T06:57:53;11.30;;;5.00;;
22646;SDS011;11490;42.726;23.268;2024-03-25T07:00:19;6.55;;;4.88;;
22646;SDS011;11490;42.726;23.268;2024-03-25T07:02:47;7.53;;;5.47;;
22646;SDS011;11490;42.726;23.268;2024-03-25T07:05:15;9.63;;;5.63;;
22646;SDS011;11490;42.726;23.268;2024-03-25T07:07:40;11.57;;;6.65;;
22646;SDS011;11490;42.726;23.268;2024-03-25T07:10:06;11.13;;;5.97;;
22646;SDS011;11490;42.726;23.268;2024-03-25T07:12:40;7.47;;;5.25;;
22646;SDS011;11490;42.726;23.268;2024-03-25T07:15:09;13.23;;;5.80;;
22646;SDS011;11490;42.726;23.268;2024-03-25T07:17:46;9.95;;;5.90;;
22646;SDS011;11490;42.726;23.268;2024-03-25T07:20:46;15.52;;;5.85;;
22646;SDS011;11490;42.726;23.268;2024-03-25T07:23:44;8.30;;;5.40;;
22646;SDS011;11490;42.726;23.268;2024-03-25T07:26:19;5.60;;;4.22;;
22646;SDS011;11490;42.726;23.268;2024-03-25T07:28:55;7.88;;;4.55;;
22646;SDS011;11490;42.726;23.268;2024-03-25T07:31:20;7.65;;;4.97;;
22646;SDS011;11490;42.726;23.268;2024-03-25T07:33:45;8.88;;;5.10;;
22646;SDS011;11490;42.726;23.268;2024-03-25T07:36:14;7.40;;;5.32;;
22646;SDS011;11490;42.726;23.268;2024-03-25T07:38:39;6.68;;;4.38;;
22646;SDS011;11490;42.726;23.268;2024-03-25T07:41:08;8.05;;;4.68;;
22646;SDS011;11490;42.726;23.268;2024-03-25T07:43:36;6.70;;;4.35;;
22646;SDS011;11490;42.726;23.268;2024-03-25T07:46:02;5.63;;;4.70;;
22646;SDS011;11490;42.726;23.268;2024-03-25T07:48:27;6.00;;;4.28;;
22646;SDS011;11490;42.726;23.268;2024-03-25T07:50:52;7.35;;;4.43;;
22646;SDS011;11490;42.726;23.268;2024-03-25T07:53:18;7.53;;;4.75;;
22646;SDS011;11490;42.726;23.268;2024-03-25T07:55:43;6.07;;;4.38;;
22646;SDS011;11490;42.726;23.268;2024-03-25T07:58:14;8.90;;;5.00;;
22646;SDS011;11490;42.726;23.268;2024-03-25T08:00:39;5.93;;;3.85;;
22646;SDS011;11490;42.726;23.268;2024-03-25T08:03:08;6.57;;;4.47;;
22646;SDS011;11490;42.726;23.268;2024-03-25T08:05:33;10.27;;;5.28;;
22646;SDS011;11490;42.726;23.268;2024-03-25T08:08:02;7.20;;;3.72;;
22646;SDS011;11490;42.726;23.268;2024-03-25T08:10:28;8.05;;;4.53;;
22646;SDS011;11490;42.726;23.268;2024-03-25T08:12:57;6.28;;;4.43;;
22646;SDS011;11490;42.726;23.268;2024-03-25T08:15:23;9.23;;;6.47;;
22646;SDS011;11490;42.726;23.268;2024-03-25T08:17:48;9.00;;;4.35;;
22646;SDS011;11490;42.726;23.268;2024-03-25T08:20:13;7.05;;;4.53;;
22646;SDS011;11490;42.726;23.268;2024-03-25T08:22:39;7.15;;;4.00;;
22646;SDS011;11490;42.726;23.268;2024-03-25T08:25:04;8.30;;;5.50;;
22646;SDS011;11490;42.726;23.268;2024-03-25T08:27:30;5.00;;;4.03;;
22646;SDS011;11490;42.726;23.268;2024-03-25T08:29:55;7.22;;;4.60;;
22646;SDS011;11490;42.726;23.268;2024-03-25T08:32:21;7.72;;;3.95;;
22646;SDS011;11490;42.726;23.268;2024-03-25T08:34:46;8.20;;;4.50;;
22646;SDS011;11490;42.726;23.268;2024-03-25T08:37:12;5.00;;;4.18;;
22646;SDS011;11490;42.726;23.268;2024-03-25T08:39:37;7.05;;;4.28;;
22646;SDS011;11490;42.726;23.268;2024-03-25T08:42:02;5.85;;;4.78;;
22646;SDS011;11490;42.726;23.268;2024-03-25T08:44:28;6.68;;;4.85;;
22646;SDS011;11490;42.726;23.268;2024-03-25T08:46:54;5.80;;;4.05;;
22646;SDS011;11490;42.726;23.268;2024-03-25T08:49:19;5.22;;;4.22;;
22646;SDS011;11490;42.726;23.268;2024-03-25T08:51:45;7.25;;;4.30;;
22646;SDS011;11490;42.726;23.268;2024-03-25T08:54:10;6.80;;;4.88;;
22646;SDS011;11490;42.726;23.268;2024-03-25T08:56:36;7.30;;;4.50;;
22646;SDS011;11490;42.726;23.268;2024-03-25T08:59:01;5.18;;;3.90;;
22646;SDS011;11490;42.726;23.268;2024-03-25T09:01:27;5.53;;;3.67;;
22646;SDS011;11490;42.726;23.268;2024-03-25T09:03:52;5.55;;;4.07;;
22646;SDS011;11490;42.726;23.268;2024-03-25T09:06:20;5.78;;;4.10;;
22646;SDS011;11490;42.726;23.268;2024-03-25T09:08:45;6.18;;;4.47;;
22646;SDS011;11490;42.726;23.268;2024-03-25T09:11:29;12.77;;;4.88;;
22646;SDS011;11490;42.726;23.268;2024-03-25T09:13:54;4.18;;;3.75;;
22646;SDS011;11490;42.726;23.268;2024-03-25T09:16:20;7.05;;;3.85;;
22646;SDS011;11490;42.726;23.268;2024-03-25T09:18:45;5.65;;;3.88;;
22646;SDS011;11490;42.726;23.268;2024-03-25T09:21:11;6.78;;;4.03;;
22646;SDS011;11490;42.726;23.268;2024-03-25T09:23:36;5.93;;;3.97;;
22646;SDS011;11490;42.726;23.268;2024-03-25T09:26:02;8.57;;;5.00;;
22646;SDS011;11490;42.726;23.268;2024-03-25T09:28:27;7.53;;;4.88;;
22646;SDS011;11490;42.726;23.268;2024-03-25T09:30:53;8.30;;;5.15;;
22646;SDS011;11490;42.726;23.268;2024-03-25T09:33:18;7.95;;;5.05;;
22646;SDS011;11490;42.726;23.268;2024-03-25T09:35:44;5.55;;;3.75;;
22646;SDS011;11490;42.726;23.268;2024-03-25T09:38:10;6.25;;;4.20;;
22646;SDS011;11490;42.726;23.268;2024-03-25T09:40:35;4.70;;;4.10;;
22646;SDS011;11490;42.726;23.268;2024-03-25T09:43:04;8.02;;;4.25;;
22646;SDS011;11490;42.726;23.268;2024-03-25T09:45:36;5.55;;;3.97;;
22646;SDS011;11490;42.726;23.268;2024-03-25T09:48:05;8.60;;;4.40;;
22646;SDS011;11490;42.726;23.268;2024-03-25T09:50:32;4.10;;;3.35;;
22646;SDS011;11490;42.726;23.268;2024-03-25T09:52:57;9.48;;;4.53;;
22646;SDS011;11490;42.726;23.268;2024-03-25T09:55:22;6.55;;;3.72;;
22646;SDS011;11490;42.726;23.268;2024-03-25T09:57:49;6.70;;;4.22;;
22646;SDS011;11490;42.726;23.268;2024-03-25T10:00:14;10.27;;;4.22;;
22646;SDS011;11490;42.726;23.268;2024-03-25T10:02:41;5.03;;;3.83;;
22646;SDS011;11490;42.726;23.268;2024-03-25T10:05:07;4.47;;;2.97;;
22646;SDS011;11490;42.726;23.268;2024-03-25T10:07:35;4.53;;;4.03;;
22646;SDS011;11490;42.726;23.268;2024-03-25T10:10:04;4.18;;;3.40;;
22646;SDS011;11490;42.726;23.268;2024-03-25T10:12:54;5.25;;;3.70;;
22646;SDS011;11490;42.726;23.268;2024-03-25T10:15:35;5.25;;;4.38;;
22646;SDS011;11490;42.726;23.268;2024-03-25T10:18:17;5.53;;;3.38;;
22646;SDS011;11490;42.726;23.268;2024-03-25T10:20:49;3.65;;;3.25;;
22646;SDS011;11490;42.726;23.268;2024-03-25T10:23:17;5.70;;;3.65;;
22646;SDS011;11490;42.726;23.268;2024-03-25T10:26:08;5.95;;;4.25;;
22646;SDS011;11490;42.726;23.268;2024-03-25T10:28:36;4.63;;;3.53;;
22646;SDS011;11490;42.726;23.268;2024-03-25T10:31:05;3.55;;;2.88;;
22646;SDS011;11490;42.726;23.268;2024-03-25T10:33:30;4.93;;;2.55;;
22646;SDS011;11490;42.726;23.268;2024-03-25T10:35:56;3.88;;;2.88;;
22646;SDS011;11490;42.726;23.268;2024-03-25T10:38:23;4.70;;;3.33;;
22646;SDS011;11490;42.726;23.268;2024-03-25T10:40:49;6.13;;;3.38;;
22646;SDS011;11490;42.726;23.268;2024-03-25T10:43:20;6.18;;;3.72;;
22646;SDS011;11490;42.726;23.268;2024-03-25T10:45:47;4.32;;;3.78;;
22646;SDS011;11490;42.726;23.268;2024-03-25T10:48:15;3.72;;;3.35;;
22646;SDS011;11490;42.726;23.268;2024-03-25T10:50:45;5.75;;;3.33;;
22646;SDS011;11490;42.726;23.268;2024-03-25T10:53:11;4.18;;;3.33;;
22646;SDS011;11490;42.726;23.268;2024-03-25T10:55:39;4.53;;;3.72;;
22646;SDS011;11490;42.726;23.268;2024-03-25T10:58:05;4.47;;;3.60;;
22646;SDS011;11490;42.726;23.268;2024-03-25T11:00:33;5.07;;;3.78;;
22646;SDS011;11490;42.726;23.268;2024-03-25T11:03:00;3.55;;;3.22;;
22646;SDS011;11490;42.726;23.268;2024-03-25T11:05:26;5.25;;;3.78;;
22646;SDS011;11490;42.726;23.268;2024-03-25T11:07:52;3.40;;;2.92;;
22646;SDS011;11490;42.726;23.268;2024-03-25T11:10:18;10.70;;;3.35;;
22646;SDS011;11490;42.726;23.268;2024-03-25T11:12:43;6.53;;;3.50;;
22646;SDS011;11490;42.726;23.268;2024-03-25T11:15:12;4.75;;;3.10;;
22646;SDS011;11490;42.726;23.268;2024-03-25T11:17:47;4.65;;;3.38;;
22646;SDS011;11490;42.726;23.268;2024-03-25T11:20:15;4.15;;;2.80;;
22646;SDS011;11490;42.726;23.268;2024-03-25T11:22:53;5.15;;;3.55;;
22646;SDS011;11490;42.726;23.268;2024-03-25T11:25:22;3.08;;;2.33;;
22646;SDS011;11490;42.726;23.268;2024-03-25T11:27:50;4.43;;;2.45;;
22646;SDS011;11490;42.726;23.268;2024-03-25T11:30:15;3.83;;;2.83;;
22646;SDS011;11490;42.726;23.268;2024-03-25T11:35:09;3.30;;;2.75;;
22646;SDS011;11490;42.726;23.268;2024-03-25T11:37:41;4.10;;;3.28;;
22646;SDS011;11490;42.726;23.268;2024-03-25T11:40:11;4.90;;;3.22;;
22646;SDS011;11490;42.726;23.268;2024-03-25T11:42:39;4.97;;;3.42;;
22646;SDS011;11490;42.726;23.268;2024-03-25T11:45:17;3.38;;;2.95;;
22646;SDS011;11490;42.726;23.268;2024-03-25T11:47:45;5.18;;;3.30;;
22646;SDS011;11490;42.726;23.268;2024-03-25T11:50:17;3.42;;;3.03;;
22646;SDS011;11490;42.726;23.268;2024-03-25T11:52:46;3.40;;;3.00;;
22646;SDS011;11490;42.726;23.268;2024-03-25T11:55:16;5.57;;;3.60;;
22646;SDS011;11490;42.726;23.268;2024-03-25T11:57:42;5.57;;;4.05;;
22646;SDS011;11490;42.726;23.268;2024-03-25T12:00:08;3.55;;;2.60;;
22646;SDS011;11490;42.726;23.268;2024-03-25T12:02:42;3.35;;;2.53;;
22646;SDS011;11490;42.726;23.268;2024-03-25T12:05:10;4.78;;;3.17;;
22646;SDS011;11490;42.726;23.268;2024-03-25T12:07:36;3.92;;;3.10;;
22646;SDS011;11490;42.726;23.268;2024-03-25T12:10:01;3.00;;;2.70;;
22646;SDS011;11490;42.726;23.268;2024-03-25T12:12:46;3.13;;;2.75;;
22646;SDS011;11490;42.726;23.268;2024-03-25T12:15:12;8.13;;;3.40;;
22646;SDS011;11490;42.726;23.268;2024-03-25T12:17:37;3.67;;;3.13;;
22646;SDS011;11490;42.726;23.268;2024-03-25T12:20:06;3.10;;;2.70;;
22646;SDS011;11490;42.726;23.268;2024-03-25T12:22:33;3.40;;;2.75;;
22646;SDS011;11490;42.726;23.268;2024-03-25T12:25:00;4.45;;;3.05;;
22646;SDS011;11490;42.726;23.268;2024-03-25T12:27:28;4.22;;;2.92;;
22646;SDS011;11490;42.726;23.268;2024-03-25T12:30:00;4.53;;;2.80;;
22646;SDS011;11490;42.726;23.268;2024-03-25T12:32:35;3.05;;;2.80;;
22646;SDS011;11490;42.726;23.268;2024-03-25T12:35:16;3.33;;;2.30;;
22646;SDS011;11490;42.726;23.268;2024-03-25T12:37:43;3.58;;;2.53;;
22646;SDS011;11490;42.726;23.268;2024-03-25T12:40:24;4.70;;;3.15;;
22646;SDS011;11490;42.726;23.268;2024-03-25T12:42:51;6.78;;;2.88;;
22646;SDS011;11490;42.726;23.268;2024-03-25T12:45:18;4.97;;;3.30;;
22646;SDS011;11490;42.726;23.268;2024-03-25T12:47:54;4.72;;;2.80;;
22646;SDS011;11490;42.726;23.268;2024-03-25T12:50:19;5.20;;;2.80;;
22646;SDS011;11490;42.726;23.268;2024-03-25T12:52:48;5.22;;;3.72;;
22646;SDS011;11490;42.726;23.268;2024-03-25T12:55:14;7.10;;;3.90;;
22646;SDS011;11490;42.726;23.268;2024-03-25T12:57:42;4.18;;;3.05;;
22646;SDS011;11490;42.726;23.268;2024-03-25T13:00:17;5.40;;;3.50;;
22646;SDS011;11490;42.726;23.268;2024-03-25T13:02:45;5.88;;;3.75;;
22646;SDS011;11490;42.726;23.268;2024-03-25T13:05:10;5.43;;;3.40;;
22646;SDS011;11490;42.726;23.268;2024-03-25T13:07:36;5.22;;;3.10;;
22646;SDS011;11490;42.726;23.268;2024-03-25T13:10:01;3.17;;;2.78;;
22646;SDS011;11490;42.726;23.268;2024-03-25T13:12:38;8.48;;;4.13;;
22646;SDS011;11490;42.726;23.268;2024-03-25T13:15:07;4.32;;;3.38;;
22646;SDS011;11490;42.726;23.268;2024-03-25T13:17:35;5.10;;;2.78;;
22646;SDS011;11490;42.726;23.268;2024-03-25T13:20:07;4.03;;;3.05;;
22646;SDS011;11490;42.726;23.268;2024-03-25T13:22:53;6.68;;;3.58;;
22646;SDS011;11490;42.726;23.268;2024-03-25T13:25:24;3.67;;;3.28;;
22646;SDS011;11490;42.726;23.268;2024-03-25T13:27:49;2.70;;;2.45;;
22646;SDS011;11490;42.726;23.268;2024-03-25T13:30:18;3.30;;;2.92;;
22646;SDS011;11490;42.726;23.268;2024-03-25T13:32:52;3.10;;;2.40;;
22646;SDS011;11490;42.726;23.268;2024-03-25T13:35:23;3.47;;;2.65;;
22646;SDS011;11490;42.726;23.268;2024-03-25T13:38:14;3.85;;;2.83;;
22646;SDS011;11490;42.726;23.268;2024-03-25T13:40:40;2.55;;;2.20;;
22646;SDS011;11490;42.726;23.268;2024-03-25T13:43:05;3.58;;;2.70;;
22646;SDS011;11490;42.726;23.268;2024-03-25T13:45:33;2.75;;;2.22;;
22646;SDS011;11490;42.726;23.268;2024-03-25T13:47:59;3.20;;;2.70;;
22646;SDS011;11490;42.726;23.268;2024-03-25T13:50:30;3.17;;;2.22;;
22646;SDS011;11490;42.726;23.268;2024-03-25T13:53:03;1.70;;;1.60;;
22646;SDS011;11490;42.726;23.268;2024-03-25T13:55:36;1.80;;;1.70;;
22646;SDS011;11490;42.726;23.268;2024-03-25T13:58:01;3.50;;;2.40;;
22646;SDS011;11490;42.726;23.268;2024-03-25T14:00:28;2.30;;;2.10;;
22646;SDS011;11490;42.726;23.268;2024-03-25T14:02:58;5.85;;;2.08;;
22646;SDS011;11490;42.726;23.268;2024-03-25T14:05:24;2.00;;;1.80;;
22646;SDS011;11490;42.726;23.268;2024-03-25T14:07:50;2.63;;;1.98;;
22646;SDS011;11490;42.726;23.268;2024-03-25T14:10:15;2.80;;;1.80;;
22646;SDS011;11490;42.726;23.268;2024-03-25T14:12:41;2.20;;;2.00;;
22646;SDS011;11490;42.726;23.268;2024-03-25T14:15:07;2.25;;;2.00;;
22646;SDS011;11490;42.726;23.268;2024-03-25T14:17:35;2.20;;;2.00;;
22646;SDS011;11490;42.726;23.268;2024-03-25T14:20:01;12.57;;;4.97;;
22646;SDS011;11490;42.726;23.268;2024-03-25T14:22:27;2.05;;;1.85;;
22646;SDS011;11490;42.726;23.268;2024-03-25T14:24:55;2.00;;;1.80;;
22646;SDS011;11490;42.726;23.268;2024-03-25T14:27:25;1.98;;;1.73;;
22646;SDS011;11490;42.726;23.268;2024-03-25T14:29:51;2.42;;;2.20;;
22646;SDS011;11490;42.726;23.268;2024-03-25T14:32:20;2.53;;;2.03;;
22646;SDS011;11490;42.726;23.268;2024-03-25T14:34:46;2.90;;;2.45;;
22646;SDS011;11490;42.726;23.268;2024-03-25T14:37:12;2.83;;;2.45;;
22646;SDS011;11490;42.726;23.268;2024-03-25T14:39:38;1.95;;;1.73;;
22646;SDS011;11490;42.726;23.268;2024-03-25T14:42:04;2.28;;;2.08;;